createdAt,value
2022-09-25T00:02:53.868Z,31.80
2022-09-25T00:07:59.746Z,33.50
2022-09-25T00:13:05.757Z,34.60
2022-09-25T00:18:11.809Z,31.50
2022-09-25T00:23:17.840Z,30.80
2022-09-25T00:28:23.709Z,31.90
2022-09-25T00:33:29.617Z,31.50
2022-09-25T00:38:36.913Z,32.40
2022-09-25T00:43:45.647Z,28.80
2022-09-25T00:48:55.235Z,29.90
2022-09-25T00:54:04.640Z,30.50
2022-09-25T00:59:14.205Z,32.20
2022-09-25T01:04:22.654Z,32.60
2022-09-25T01:09:28.905Z,26.70
2022-09-25T01:14:35.428Z,26.00
2022-09-25T01:19:54.878Z,26.30
2022-09-25T01:25:12.233Z,27.50
2022-09-25T01:30:20.242Z,28.00
2022-09-25T01:35:43.051Z,25.30
2022-09-25T01:40:53.573Z,23.60
2022-09-25T01:46:03.571Z,24.70
2022-09-25T01:51:16.178Z,25.80
2022-09-25T01:56:31.561Z,25.50
2022-09-25T02:01:41.200Z,22.60
2022-09-25T02:06:50.362Z,23.90
2022-09-25T02:12:00.167Z,26.10
2022-09-25T02:17:10.746Z,26.20
2022-09-25T02:22:20.054Z,24.60
2022-09-25T02:27:29.396Z,23.50
2022-09-25T02:32:35.276Z,25.70
2022-09-25T02:37:41.286Z,27.80
2022-09-25T02:42:53.139Z,26.20
2022-09-25T02:48:08.631Z,24.40
2022-09-25T02:53:19.705Z,25.20
2022-09-25T02:58:31.479Z,26.20
2022-09-25T03:03:40.099Z,23.80
2022-09-25T03:08:52.098Z,23.20
2022-09-25T03:14:00.764Z,23.90
2022-09-25T03:19:07.086Z,27.30
2022-09-25T03:24:13.015Z,35.60
2022-09-25T03:29:19.237Z,38.20
2022-09-25T03:34:25.113Z,38.70
2022-09-25T03:39:30.910Z,35.80
2022-09-25T03:44:36.919Z,33.50
2022-09-25T03:49:42.554Z,33.30
2022-09-25T03:54:48.588Z,30.10
2022-09-25T03:59:54.505Z,44.10
2022-09-25T04:05:00.186Z,39.60
2022-09-25T04:10:06.879Z,37.00
2022-09-25T04:15:13.275Z,31.90
2022-09-25T04:20:19.614Z,29.70
2022-09-25T04:25:25.944Z,28.90
2022-09-25T04:30:32.337Z,30.20
2022-09-25T04:35:38.263Z,32.00
2022-09-25T04:40:46.042Z,28.60
2022-09-25T04:45:52.112Z,25.80
2022-09-25T04:50:58.292Z,26.70
2022-09-25T04:56:12.187Z,27.30
2022-09-25T05:01:21.491Z,29.30
2022-09-25T05:06:27.573Z,28.30
2022-09-25T05:11:33.608Z,27.90
2022-09-25T05:16:39.421Z,29.70
2022-09-25T05:21:45.362Z,29.90
2022-09-25T05:26:51.501Z,30.80
2022-09-25T05:31:57.249Z,31.70
2022-09-25T05:37:03.490Z,32.40
2022-09-25T05:42:09.289Z,30.30
2022-09-25T05:47:15.473Z,27.10
2022-09-25T05:52:21.566Z,25.80
2022-09-25T05:57:28.425Z,23.30
2022-09-25T06:02:34.190Z,23.20
2022-09-25T06:07:40.063Z,20.50
2022-09-25T06:12:45.922Z,20.50
2022-09-25T06:17:51.656Z,20.50
2022-09-25T06:22:58.772Z,16.80
2022-09-25T06:28:06.280Z,15.30
2022-09-25T06:33:14.299Z,12.70
2022-09-25T06:38:20.218Z,12.00
2022-09-25T06:43:25.999Z,10.50
2022-09-25T06:48:32.257Z,9.90
2022-09-25T06:53:38.273Z,8.90
2022-09-25T06:58:44.146Z,9.10
2022-09-25T07:03:50.093Z,8.30
2022-09-25T07:08:57.193Z,7.40
2022-09-25T07:14:03.541Z,7.50
2022-09-25T07:19:41.061Z,7.30
2022-09-25T07:24:48.357Z,7.50
2022-09-25T07:29:55.160Z,6.90
2022-09-25T07:35:01.589Z,7.00
2022-09-25T07:40:12.745Z,6.40
2022-09-25T07:45:18.937Z,6.50
2022-09-25T07:50:25.073Z,6.30
2022-09-25T07:55:30.942Z,6.90
2022-09-25T08:00:36.772Z,6.60
2022-09-25T08:05:43.210Z,5.90
2022-09-25T08:11:02.170Z,5.70
2022-09-25T08:16:42.026Z,5.00
2022-09-25T08:21:55.937Z,4.80
2022-09-25T08:27:01.707Z,4.50
2022-09-25T08:32:49.204Z,4.60
2022-09-25T08:39:20.633Z,4.20
2022-09-25T08:51:21.443Z,4.00
2022-09-25T08:56:29.468Z,3.90
2022-09-25T09:01:46.309Z,4.20
2022-09-25T09:07:25.022Z,3.30
2022-09-25T09:12:34.292Z,2.70
2022-09-25T09:17:43.506Z,3.10
2022-09-25T09:22:53.218Z,2.70
2022-09-25T09:28:30.383Z,2.50
2022-09-25T09:35:04.186Z,1.90
2022-09-25T09:40:47.319Z,2.10
2022-09-25T09:45:59.175Z,2.20
2022-09-25T09:51:11.239Z,2.20
2022-09-25T09:56:22.952Z,2.40
2022-09-25T10:01:42.002Z,2.50
2022-09-25T10:06:51.225Z,2.70
2022-09-25T10:12:01.980Z,2.80
2022-09-25T10:17:12.656Z,2.80
2022-09-25T10:22:21.646Z,2.50
2022-09-25T10:27:35.870Z,2.80
2022-09-25T10:32:57.211Z,3.20
2022-09-25T10:38:05.038Z,2.70
2022-09-25T10:43:24.205Z,2.50
2022-09-25T10:48:52.116Z,2.50
2022-09-25T10:54:13.537Z,2.70
2022-09-25T10:59:23.588Z,2.50
2022-09-25T11:04:32.216Z,2.80
2022-09-25T11:09:44.959Z,3.50
2022-09-25T11:14:58.265Z,2.80
2022-09-25T11:20:27.665Z,3.00
2022-09-25T11:25:42.064Z,2.80
2022-09-25T11:30:54.270Z,3.00
2022-09-25T11:36:06.125Z,2.50
2022-09-25T11:41:23.402Z,2.70
2022-09-25T11:46:39.369Z,2.80
2022-09-25T11:52:28.264Z,2.30
2022-09-25T11:57:45.935Z,2.90
2022-09-25T12:03:07.412Z,2.60
2022-09-25T12:08:27.072Z,2.70
2022-09-25T12:13:44.715Z,3.00
2022-09-25T12:19:13.054Z,3.30
2022-09-25T12:24:35.463Z,3.80
2022-09-25T12:29:58.007Z,3.70
2022-09-25T12:35:28.376Z,4.10
2022-09-25T12:40:38.903Z,4.30
2022-09-25T12:45:49.376Z,4.50
2022-09-25T12:51:05.394Z,3.60
2022-09-25T12:56:16.334Z,4.20
2022-09-25T13:01:28.118Z,4.20
2022-09-25T13:06:47.944Z,5.60
2022-09-25T13:12:00.484Z,5.30
2022-09-25T13:17:10.545Z,5.10
2022-09-25T13:22:21.811Z,5.60
2022-09-25T13:27:35.361Z,5.30
2022-09-25T13:32:50.867Z,4.90
2022-09-25T13:38:09.675Z,5.00
2022-09-25T13:43:26.833Z,5.20
2022-09-25T13:48:37.755Z,4.40
2022-09-25T13:59:20.390Z,4.30
2022-09-25T14:04:39.183Z,4.70
2022-09-25T14:09:49.974Z,4.70
2022-09-25T14:15:01.326Z,6.60
2022-09-25T14:20:27.903Z,4.90
2022-09-25T14:25:40.612Z,7.40
2022-09-25T14:31:08.638Z,6.70
2022-09-25T14:36:27.874Z,5.20
2022-09-25T14:41:52.949Z,5.40
2022-09-25T14:46:59.292Z,5.50
2022-09-25T14:52:09.507Z,6.20
2022-09-25T14:57:25.572Z,6.10
2022-09-25T15:02:36.929Z,5.10
2022-09-25T15:07:46.363Z,4.70
2022-09-25T15:12:53.258Z,6.00
2022-09-25T15:18:02.467Z,5.30
2022-09-25T15:23:15.314Z,5.40
2022-09-25T15:28:25.270Z,7.00
2022-09-25T15:33:34.072Z,16.60
2022-09-25T15:38:40.918Z,7.80
2022-09-25T15:43:47.023Z,13.30
2022-09-25T15:48:56.227Z,12.90
2022-09-25T15:54:04.141Z,13.30
2022-09-25T15:59:20.079Z,18.60
2022-09-25T16:04:39.215Z,21.20
2022-09-25T16:09:48.400Z,20.10
2022-09-25T16:14:56.238Z,16.70
2022-09-25T16:20:05.765Z,16.60
2022-09-25T16:25:22.119Z,14.40
2022-09-25T16:30:28.064Z,15.70
2022-09-25T16:36:05.254Z,14.40
2022-09-25T16:41:07.539Z,15.20
2022-09-25T16:46:18.486Z,14.90
2022-09-25T16:51:30.191Z,14.40
2022-09-25T16:56:36.222Z,18.80
2022-09-25T17:01:42.204Z,18.70
2022-09-25T17:06:48.620Z,20.90
2022-09-25T17:11:59.320Z,24.60
2022-09-25T17:17:05.087Z,29.70
2022-09-25T17:22:11.732Z,28.60
2022-09-25T17:27:18.146Z,27.20
2022-09-25T17:32:24.045Z,22.60
2022-09-25T17:37:29.940Z,19.50
2022-09-25T17:42:36.025Z,21.90
2022-09-25T17:47:42.245Z,26.60
2022-09-25T17:52:48.262Z,32.70
2022-09-25T17:57:54.097Z,39.90
2022-09-25T18:02:59.882Z,41.30
2022-09-25T18:08:06.178Z,37.90
2022-09-25T18:13:15.355Z,37.30
2022-09-25T18:18:21.346Z,37.30
2022-09-25T18:23:28.097Z,48.70
2022-09-25T18:28:34.260Z,47.30
2022-09-25T18:33:42.270Z,54.00
2022-09-25T18:38:51.475Z,68.50
2022-09-25T18:43:58.051Z,85.00
2022-09-25T18:49:04.004Z,53.30
2022-09-25T18:54:14.437Z,39.80
2022-09-25T18:59:20.572Z,53.80
2022-09-25T19:04:26.791Z,76.90
2022-09-25T19:09:32.676Z,69.10
2022-09-25T19:14:38.669Z,119.10
2022-09-25T19:19:45.044Z,137.20
2022-09-25T19:33:34.528Z,74.10
2022-09-25T19:38:40.625Z,65.20
2022-09-25T19:43:46.693Z,64.30
2022-09-25T19:48:52.565Z,59.30
2022-09-25T19:53:58.365Z,52.90
2022-09-25T19:59:05.655Z,43.90
2022-09-25T20:04:18.011Z,42.20
2022-09-25T20:09:26.942Z,44.20
2022-09-25T20:14:32.798Z,54.80
2022-09-25T20:19:38.751Z,59.70
2022-09-25T20:24:44.579Z,57.30
2022-09-25T20:29:50.472Z,63.50
2022-09-25T20:34:56.329Z,56.00
2022-09-25T20:40:02.581Z,50.50
2022-09-25T20:45:10.144Z,43.30
2022-09-25T20:50:16.608Z,38.80
2022-09-25T20:55:22.656Z,36.70
2022-09-25T21:00:29.273Z,39.20
2022-09-25T21:05:39.566Z,41.50
2022-09-25T21:10:45.811Z,40.10
2022-09-25T21:15:52.001Z,37.90
2022-09-25T21:21:01.886Z,36.10
2022-09-25T21:26:13.566Z,37.00
2022-09-25T21:31:22.299Z,38.60
2022-09-25T21:36:29.524Z,39.60
2022-09-25T21:41:35.781Z,49.30
2022-09-25T21:46:41.788Z,60.40
2022-09-25T21:51:48.419Z,69.80
2022-09-25T21:56:54.447Z,73.90
2022-09-25T22:02:00.256Z,59.90
2022-09-25T22:07:06.661Z,51.60
2022-09-25T22:12:12.367Z,46.60
2022-09-25T22:17:18.486Z,46.20
2022-09-25T22:22:24.402Z,40.90
2022-09-25T22:27:30.286Z,37.00
2022-09-25T22:32:36.630Z,37.90
2022-09-25T22:37:42.495Z,38.00
2022-09-25T22:42:48.483Z,38.00
2022-09-25T22:47:54.431Z,34.80
2022-09-25T22:53:00.172Z,33.40
2022-09-25T22:58:06.075Z,33.60
2022-09-25T23:03:12.227Z,35.40
2022-09-25T23:08:18.171Z,34.60
2022-09-25T23:13:24.212Z,32.00
2022-09-25T23:18:33.570Z,30.20
2022-09-25T23:23:39.607Z,31.70
2022-09-25T23:28:45.316Z,32.80
2022-09-25T23:33:51.408Z,52.10
2022-09-25T23:38:59.183Z,53.90
2022-09-25T23:44:10.372Z,53.30
2022-09-25T23:49:16.477Z,45.20
2022-09-25T23:54:22.997Z,35.80
2022-09-25T23:59:29.158Z,34.70
